Time;durP1;ratioP1;P1;durP2;ratioP2;P2;SDS_P1;SDS_P2;PMS_P1;PMS_P2;Temp;Humidity;BMP_temperature;BMP_pressure;BME280_temperature;BME280_humidity;BME280_pressure;Samples;Min_cycle;Max_cycle;Signal;HPM_P1;HPM_P2
2023/09/22 00:00:36;;;;;;;18.02;16.30;;;15.90;99.90;;;;;;5064496;28;20049;-73
2023/09/22 00:03:04;;;;;;;16.98;15.38;;;15.90;99.90;;;;;;5045366;28;20480;-74
2023/09/22 00:05:30;;;;;;;17.38;15.30;;;15.90;99.90;;;;;;5055430;28;20056;-73
2023/09/22 00:07:57;;;;;;;15.20;13.77;;;15.90;99.90;;;;;;5054137;28;20053;-73
2023/09/22 00:10:23;;;;;;;14.48;13.10;;;15.90;99.90;;;;;;5055878;28;20107;-73
2023/09/22 00:12:49;;;;;;;13.38;12.10;;;15.90;99.90;;;;;;5053343;28;20590;-73
2023/09/22 00:15:15;;;;;;;13.93;12.48;;;15.90;99.90;;;;;;5047720;28;20079;-73
2023/09/22 00:17:41;;;;;;;12.60;11.43;;;15.90;99.90;;;;;;5061464;28;20044;-73
2023/09/22 00:20:08;;;;;;;9.05;8.20;;;16.00;99.90;;;;;;5052961;28;20464;-73
2023/09/22 00:22:34;;;;;;;8.90;8.00;;;16.00;99.90;;;;;;5074753;28;20052;-73
2023/09/22 00:25:00;;;;;;;8.13;7.22;;;15.90;99.90;;;;;;5052026;28;20040;-73
2023/09/22 00:27:26;;;;;;;8.77;7.18;;;15.90;99.90;;;;;;5068518;28;20074;-73
2023/09/22 00:29:52;;;;;;;9.32;7.07;;;15.90;99.90;;;;;;5055578;28;20671;-73
2023/09/22 00:32:18;;;;;;;7.40;6.70;;;15.90;99.90;;;;;;5063651;28;20079;-73
2023/09/22 00:34:43;;;;;;;7.53;6.82;;;15.90;99.90;;;;;;5050137;28;20037;-73
2023/09/22 00:37:09;;;;;;;9.50;7.28;;;15.90;99.90;;;;;;5063979;28;20127;-74
2023/09/22 00:39:35;;;;;;;7.78;6.85;;;15.90;99.90;;;;;;5051111;28;20049;-74
2023/09/22 00:42:05;;;;;;;7.78;6.93;;;15.90;99.90;;;;;;5052259;28;20534;-73
2023/09/22 00:44:31;;;;;;;8.23;7.40;;;15.90;99.90;;;;;;5055196;28;20045;-73
2023/09/22 00:46:58;;;;;;;9.88;7.20;;;15.90;99.90;;;;;;5054865;28;20053;-73
2023/09/22 00:49:24;;;;;;;8.68;7.75;;;15.80;99.90;;;;;;5068510;28;20140;-73
2023/09/22 00:51:50;;;;;;;8.23;7.13;;;15.80;99.90;;;;;;5048577;28;20439;-74
2023/09/22 00:54:16;;;;;;;8.10;7.20;;;15.80;99.90;;;;;;5068788;28;20132;-72
2023/09/22 00:56:43;;;;;;;8.48;7.57;;;15.90;99.90;;;;;;5054459;28;20139;-71
2023/09/22 00:59:09;;;;;;;8.18;7.38;;;15.80;99.90;;;;;;5065946;28;20415;-71
2023/09/22 01:01:35;;;;;;;8.70;7.78;;;15.80;99.90;;;;;;5050799;28;20055;-71
2023/09/22 01:04:00;;;;;;;8.50;7.65;;;15.80;99.90;;;;;;5036930;28;20091;-71
2023/09/22 01:06:26;;;;;;;8.18;7.38;;;15.80;99.90;;;;;;5049400;28;20052;-71
2023/09/22 01:08:52;;;;;;;11.23;8.27;;;15.80;99.90;;;;;;5054509;28;20438;-71
2023/09/22 01:11:17;;;;;;;8.63;7.82;;;15.80;99.90;;;;;;5052118;28;20045;-71
2023/09/22 01:13:43;;;;;;;11.45;9.27;;;15.80;99.90;;;;;;5058393;28;20056;-71
2023/09/22 01:16:09;;;;;;;10.40;9.45;;;15.80;99.90;;;;;;5049282;28;20506;-71
2023/09/22 01:18:34;;;;;;;11.30;10.18;;;15.80;99.90;;;;;;5053425;28;20048;-71
2023/09/22 01:21:00;;;;;;;11.90;10.20;;;15.80;99.90;;;;;;5059289;28;20133;-71
2023/09/22 01:23:26;;;;;;;11.50;10.40;;;15.80;99.90;;;;;;5058336;28;20059;-71
2023/09/22 01:25:53;;;;;;;11.68;10.57;;;15.80;99.90;;;;;;5056291;28;20087;-71
2023/09/22 01:28:18;;;;;;;11.48;10.48;;;15.80;99.90;;;;;;5054015;28;20457;-71
2023/09/22 01:30:44;;;;;;;13.73;11.90;;;15.80;99.90;;;;;;5056235;28;20128;-71
2023/09/22 01:33:10;;;;;;;12.57;11.38;;;15.80;99.90;;;;;;5054360;28;20036;-71
2023/09/22 01:35:36;;;;;;;11.80;10.70;;;15.80;99.90;;;;;;5053071;28;20033;-71
2023/09/22 01:38:31;;;;;;;13.68;12.38;;;15.80;99.90;;;;;;5060608;28;20041;-71
2023/09/22 01:40:58;;;;;;;14.75;13.35;;;15.80;99.90;;;;;;5047158;28;20048;-71
2023/09/22 01:43:24;;;;;;;14.25;12.75;;;15.80;99.90;;;;;;5056979;28;20044;-71
2023/09/22 01:45:49;;;;;;;14.90;11.90;;;15.80;99.90;;;;;;5059146;28;20102;-72
2023/09/22 01:48:15;;;;;;;13.38;12.13;;;15.80;99.90;;;;;;5054333;28;20069;-71
2023/09/22 01:50:41;;;;;;;15.15;12.15;;;15.80;99.90;;;;;;5055310;28;20485;-71
2023/09/22 01:53:10;;;;;;;13.35;12.05;;;15.80;99.90;;;;;;5058220;28;20465;-71
2023/09/22 01:55:40;;;;;;;13.27;11.98;;;15.80;99.90;;;;;;5050475;28;20079;-71
2023/09/22 01:58:07;;;;;;;14.85;13.35;;;15.80;99.90;;;;;;5061645;28;20053;-71
2023/09/22 02:00:36;;;;;;;13.90;12.65;;;15.80;99.90;;;;;;5052056;28;20040;-71
2023/09/22 02:03:03;;;;;;;15.30;13.68;;;15.80;99.90;;;;;;5052301;28;20139;-71
2023/09/22 02:05:29;;;;;;;15.05;13.65;;;15.80;99.90;;;;;;5057794;28;20053;-71
2023/09/22 02:07:57;;;;;;;16.52;14.82;;;15.80;99.90;;;;;;5052676;28;20103;-71
2023/09/22 02:10:23;;;;;;;15.98;14.55;;;15.80;99.90;;;;;;5066697;28;20131;-70
2023/09/22 02:12:49;;;;;;;15.57;14.18;;;15.80;99.90;;;;;;5057902;28;20099;-71
2023/09/22 02:15:16;;;;;;;17.50;15.90;;;15.80;99.90;;;;;;5057597;28;20113;-71
2023/09/22 02:17:43;;;;;;;16.88;15.32;;;15.80;99.90;;;;;;5052104;28;20052;-71
2023/09/22 02:20:18;;;;;;;17.77;16.15;;;15.80;99.90;;;;;;5063576;28;20075;-72
2023/09/22 02:22:48;;;;;;;17.92;16.23;;;15.70;99.90;;;;;;5051681;28;20500;-73
2023/09/22 02:25:15;;;;;;;18.23;16.52;;;15.80;99.90;;;;;;5052058;28;20064;-73
2023/09/22 02:27:41;;;;;;;19.17;17.37;;;15.80;99.90;;;;;;5058955;28;20084;-73
2023/09/22 02:30:08;;;;;;;18.73;16.83;;;15.80;99.90;;;;;;5060115;28;20093;-73
2023/09/22 02:32:34;;;;;;;18.45;16.75;;;15.80;99.90;;;;;;5048914;28;20112;-73
2023/09/22 02:35:00;;;;;;;19.03;17.33;;;15.80;99.90;;;;;;5067575;28;20101;-73
2023/09/22 02:37:27;;;;;;;19.13;17.33;;;15.70;99.90;;;;;;5063880;28;20052;-73
2023/09/22 02:39:53;;;;;;;20.42;18.52;;;15.70;99.90;;;;;;5070481;28;20044;-73
2023/09/22 02:42:19;;;;;;;20.25;18.35;;;15.70;99.90;;;;;;5056319;28;20052;-73
2023/09/22 02:44:44;;;;;;;19.48;17.58;;;15.80;99.90;;;;;;5052274;28;20132;-73
2023/09/22 02:47:10;;;;;;;18.80;16.98;;;15.70;99.90;;;;;;5065388;28;20059;-74
2023/09/22 02:49:36;;;;;;;18.35;16.65;;;15.70;99.90;;;;;;5048228;28;20103;-74
2023/09/22 02:52:02;;;;;;;18.10;16.50;;;15.70;99.90;;;;;;5048101;28;20392;-73
2023/09/22 02:54:28;;;;;;;19.48;17.60;;;15.70;99.90;;;;;;5048349;28;20038;-73
2023/09/22 02:56:55;;;;;;;18.57;16.73;;;15.70;99.90;;;;;;5058343;28;20084;-73
2023/09/22 02:59:22;;;;;;;17.23;15.63;;;15.70;99.90;;;;;;5059034;28;20063;-73
2023/09/22 03:01:49;;;;;;;17.52;15.93;;;15.70;99.90;;;;;;5058367;28;20113;-73
2023/09/22 03:04:15;;;;;;;18.80;17.10;;;15.60;99.90;;;;;;5050283;28;20273;-73
2023/09/22 03:06:41;;;;;;;17.27;15.68;;;15.60;99.90;;;;;;5055797;28;20075;-72
2023/09/22 03:09:07;;;;;;;17.52;15.93;;;15.70;99.90;;;;;;5049574;28;20055;-73
2023/09/22 03:11:33;;;;;;;17.83;16.23;;;15.70;99.90;;;;;;5056044;28;20044;-73
2023/09/22 03:13:59;;;;;;;18.55;16.85;;;15.60;99.90;;;;;;5048913;28;20057;-73
2023/09/22 03:16:28;;;;;;;19.73;17.92;;;15.60;99.90;;;;;;5052430;28;20052;-73
2023/09/22 03:18:54;;;;;;;21.17;19.17;;;15.60;99.90;;;;;;5050278;28;20083;-73
2023/09/22 03:21:22;;;;;;;21.95;19.95;;;15.60;99.90;;;;;;5057917;28;20080;-73
2023/09/22 03:23:49;;;;;;;22.50;19.77;;;15.60;99.90;;;;;;5070520;28;20041;-73
2023/09/22 03:26:18;;;;;;;20.77;18.73;;;15.60;99.90;;;;;;5059853;28;20123;-73
2023/09/22 03:28:44;;;;;;;19.67;17.83;;;15.60;99.90;;;;;;5054097;28;20036;-73
2023/09/22 03:31:10;;;;;;;18.00;16.40;;;15.60;99.90;;;;;;5051917;28;20075;-73
2023/09/22 03:33:36;;;;;;;18.92;17.23;;;15.60;99.90;;;;;;5053913;28;20041;-73
2023/09/22 03:36:02;;;;;;;18.38;16.60;;;15.60;99.90;;;;;;5049971;28;20166;-73
2023/09/22 03:38:29;;;;;;;18.80;16.90;;;15.60;99.90;;;;;;5054225;28;20135;-73
2023/09/22 03:41:00;;;;;;;18.13;16.40;;;15.60;99.90;;;;;;5054403;28;20206;-73
2023/09/22 03:43:27;;;;;;;17.67;15.88;;;15.50;99.90;;;;;;5046334;28;20036;-73
2023/09/22 03:45:56;;;;;;;17.92;16.20;;;15.50;99.90;;;;;;5057396;28;20131;-73
2023/09/22 03:48:22;;;;;;;17.95;16.35;;;15.50;99.90;;;;;;5072236;28;20056;-73
2023/09/22 03:50:48;;;;;;;17.42;15.82;;;15.50;99.90;;;;;;5058311;28;20555;-73
2023/09/22 03:53:14;;;;;;;17.75;16.05;;;15.50;99.90;;;;;;5065273;28;20417;-73
2023/09/22 03:55:40;;;;;;;19.05;16.98;;;15.50;99.90;;;;;;5062308;28;20045;-73
2023/09/22 03:58:06;;;;;;;18.58;16.77;;;15.50;99.90;;;;;;5057009;28;20159;-73
2023/09/22 04:00:32;;;;;;;18.08;16.38;;;15.50;99.90;;;;;;5047641;28;20048;-73
2023/09/22 04:03:03;;;;;;;17.63;15.98;;;15.40;99.90;;;;;;5048551;28;20527;-73
2023/09/22 04:05:29;;;;;;;18.55;16.85;;;15.40;99.90;;;;;;5063673;28;20057;-73
2023/09/22 04:07:55;;;;;;;19.10;17.38;;;15.40;99.90;;;;;;5054144;28;20570;-72
2023/09/22 04:10:22;;;;;;;19.25;17.45;;;15.40;99.90;;;;;;5060126;28;20049;-73
2023/09/22 04:12:47;;;;;;;19.10;17.30;;;15.40;99.90;;;;;;5049343;28;20045;-73
2023/09/22 04:15:13;;;;;;;20.08;18.30;;;15.40;99.90;;;;;;5050645;28;20037;-73
2023/09/22 04:17:39;;;;;;;20.45;18.65;;;15.40;99.90;;;;;;5054758;28;20041;-73
2023/09/22 04:20:09;;;;;;;20.60;18.80;;;15.30;99.90;;;;;;5051950;28;20045;-73
2023/09/22 04:22:35;;;;;;;21.48;19.48;;;15.30;99.90;;;;;;5052270;28;20449;-72
2023/09/22 04:25:03;;;;;;;22.15;20.10;;;15.30;99.90;;;;;;5064700;28;20045;-73
2023/09/22 04:27:32;;;;;;;22.05;19.92;;;15.30;99.90;;;;;;5056393;28;20067;-73
2023/09/22 04:30:07;;;;;;;23.33;21.13;;;15.20;99.90;;;;;;5071143;28;20058;-73
2023/09/22 04:32:33;;;;;;;23.83;21.73;;;15.20;99.90;;;;;;5049008;28;20179;-73
2023/09/22 04:35:03;;;;;;;24.15;21.88;;;15.20;99.90;;;;;;5051533;28;20106;-73
2023/09/22 04:37:28;;;;;;;25.42;22.92;;;15.20;99.90;;;;;;5056493;28;20040;-73
2023/09/22 04:39:54;;;;;;;24.77;22.48;;;15.10;99.90;;;;;;5064424;28;20534;-73
2023/09/22 04:42:22;;;;;;;24.88;22.48;;;15.10;99.90;;;;;;5057309;28;20040;-73
2023/09/22 04:44:50;;;;;;;;;;;15.00;99.90;;;;;;5069667;28;20170;-73
2023/09/22 04:47:16;;;;;;;28.27;25.58;;;15.00;99.90;;;;;;5064926;28;20330;-73
2023/09/22 04:49:42;;;;;;;29.05;26.38;;;14.90;99.90;;;;;;5059326;28;20044;-73
2023/09/22 04:52:08;;;;;;;30.50;27.58;;;14.90;99.90;;;;;;5060938;28;20491;-73
2023/09/22 04:54:34;;;;;;;30.02;27.23;;;14.80;99.90;;;;;;5057413;28;20063;-73
2023/09/22 04:56:59;;;;;;;28.80;26.20;;;14.80;99.90;;;;;;5062450;28;20049;-73
2023/09/22 04:59:25;;;;;;;30.50;27.58;;;14.80;99.90;;;;;;5052780;28;20040;-73
2023/09/22 05:01:51;;;;;;;29.33;26.55;;;14.80;99.90;;;;;;5077444;28;20048;-73
2023/09/22 05:04:16;;;;;;;30.35;27.50;;;14.70;99.90;;;;;;5055554;28;20037;-73
2023/09/22 05:06:43;;;;;;;31.90;28.73;;;14.70;99.90;;;;;;5050637;28;20501;-73
2023/09/22 05:09:09;;;;;;;31.47;28.47;;;14.70;99.90;;;;;;5058058;28;20046;-73
2023/09/22 05:11:35;;;;;;;31.67;28.55;;;14.70;99.90;;;;;;5053456;28;20044;-73
2023/09/22 05:14:01;;;;;;;33.67;30.08;;;14.70;99.90;;;;;;5049301;28;20078;-73
2023/09/22 05:16:27;;;;;;;33.45;30.05;;;14.60;99.90;;;;;;5060693;28;20041;-73
2023/09/22 05:18:54;;;;;;;31.52;28.30;;;14.60;99.90;;;;;;5057565;28;20052;-72
2023/09/22 05:21:20;;;;;;;33.67;30.25;;;14.50;99.90;;;;;;5052538;28;20396;-72
2023/09/22 05:23:47;;;;;;;33.58;30.20;;;14.50;99.90;;;;;;5053726;28;20041;-73
2023/09/22 05:26:12;;;;;;;32.45;29.05;;;14.50;99.90;;;;;;5054707;28;20488;-73
2023/09/22 05:28:38;;;;;;;31.77;28.52;;;14.40;99.90;;;;;;5061742;28;20084;-73
2023/09/22 05:31:07;;;;;;;30.90;27.70;;;14.40;99.90;;;;;;5051896;28;20048;-73
2023/09/22 05:33:33;;;;;;;30.70;27.40;;;14.40;99.90;;;;;;5053804;28;20037;-73
2023/09/22 05:35:59;;;;;;;30.20;27.15;;;14.40;99.90;;;;;;5050002;28;20128;-73
2023/09/22 05:38:25;;;;;;;30.63;27.50;;;14.40;99.90;;;;;;5056761;28;20048;-73
2023/09/22 05:40:51;;;;;;;29.98;26.95;;;14.30;99.90;;;;;;5056959;28;20055;-72
2023/09/22 05:43:17;;;;;;;28.35;25.38;;;14.30;99.90;;;;;;5057105;28;20059;-71
2023/09/22 05:45:43;;;;;;;29.38;25.38;;;14.30;99.90;;;;;;5057199;28;20597;-70
2023/09/22 05:48:09;;;;;;;26.88;24.00;;;14.30;99.90;;;;;;5048959;28;20049;-72
2023/09/22 05:50:36;;;;;;;25.88;23.13;;;14.30;99.90;;;;;;5047932;28;20052;-72
2023/09/22 05:53:08;;;;;;;23.95;21.55;;;14.30;99.90;;;;;;5050734;28;20490;-72
2023/09/22 05:55:33;;;;;;;24.30;21.85;;;14.30;99.90;;;;;;5051973;28;20037;-72
2023/09/22 05:58:00;;;;;;;24.05;20.70;;;14.40;99.90;;;;;;5062000;28;20502;-74
2023/09/22 06:00:31;;;;;;;22.85;18.92;;;14.40;99.90;;;;;;5053391;28;20088;-74
2023/09/22 06:02:57;;;;;;;20.80;18.48;;;14.40;99.90;;;;;;5051910;28;20094;-74
2023/09/22 06:05:23;;;;;;;19.98;17.98;;;14.40;99.90;;;;;;5062859;28;20060;-74
2023/09/22 06:07:50;;;;;;;19.35;16.95;;;14.40;99.90;;;;;;5041878;28;20049;-74
2023/09/22 06:10:16;;;;;;;17.52;15.63;;;14.40;99.90;;;;;;5063484;28;20098;-74
2023/09/22 06:12:41;;;;;;;19.35;16.17;;;14.50;99.90;;;;;;5071780;28;20049;-74
2023/09/22 06:15:09;;;;;;;17.02;14.77;;;14.50;99.90;;;;;;5050040;28;20048;-73
2023/09/22 06:17:35;;;;;;;;;;;14.50;99.90;;;;;;5061118;28;20036;-74
2023/09/22 06:20:08;;;;;;;18.70;15.15;;;14.50;99.90;;;;;;5072942;28;19920;-74
2023/09/22 06:22:34;;;;;;;18.40;14.70;;;14.50;99.90;;;;;;5068224;28;20048;-74
2023/09/22 06:25:00;;;;;;;14.98;12.95;;;14.60;99.90;;;;;;5048062;28;20098;-74
2023/09/22 06:27:26;;;;;;;17.38;13.52;;;14.60;99.90;;;;;;5052927;28;20480;-74
2023/09/22 06:29:53;;;;;;;14.65;12.52;;;14.60;99.90;;;;;;5072291;28;20134;-75
2023/09/22 06:32:19;;;;;;;15.10;13.02;;;14.60;99.90;;;;;;5064683;28;20175;-74
2023/09/22 06:34:45;;;;;;;15.60;12.70;;;14.60;99.90;;;;;;5050103;28;20045;-74
2023/09/22 06:37:10;;;;;;;15.93;13.15;;;14.60;99.90;;;;;;5052727;28;20051;-73
2023/09/22 06:39:36;;;;;;;17.17;12.88;;;14.60;99.90;;;;;;5056397;28;20037;-74
2023/09/22 06:42:02;;;;;;;16.63;12.18;;;14.60;99.90;;;;;;5056729;28;20158;-75
2023/09/22 06:44:28;;;;;;;16.05;12.65;;;14.70;99.90;;;;;;5066974;28;20041;-74
2023/09/22 06:46:54;;;;;;;15.65;12.10;;;14.70;99.90;;;;;;5067483;28;20652;-74
2023/09/22 06:49:24;;;;;;;15.85;12.60;;;14.70;99.90;;;;;;5055974;28;20428;-74
2023/09/22 06:51:50;;;;;;;16.05;12.50;;;14.70;99.90;;;;;;5061265;28;20138;-74
2023/09/22 06:54:15;;;;;;;16.73;12.30;;;14.70;99.90;;;;;;5052301;28;20079;-73
2023/09/22 06:56:43;;;;;;;13.90;11.85;;;14.70;99.90;;;;;;5052891;28;20148;-73
2023/09/22 06:59:12;;;;;;;;;;;14.70;99.90;;;;;;5049615;28;20474;-74
2023/09/22 07:01:38;;;;;;;13.48;10.88;;;14.80;99.90;;;;;;5045509;28;19920;-74
2023/09/22 07:04:08;;;;;;;14.45;11.75;;;14.80;99.90;;;;;;5047593;28;20789;-73
2023/09/22 07:06:36;;;;;;;17.70;12.18;;;14.80;99.90;;;;;;5046282;28;20065;-71
2023/09/22 07:09:09;;;;;;;14.70;12.00;;;14.90;99.90;;;;;;5048721;28;20048;-71
2023/09/22 07:11:40;;;;;;;13.30;11.75;;;14.90;99.90;;;;;;5054039;28;20076;-73
2023/09/22 07:14:09;;;;;;;16.38;12.48;;;14.90;99.90;;;;;;5053232;28;20064;-73
2023/09/22 07:16:35;;;;;;;15.57;12.18;;;14.90;99.90;;;;;;5055821;28;20037;-72
2023/09/22 07:19:01;;;;;;;15.82;11.30;;;14.90;99.90;;;;;;5050855;28;20126;-71
2023/09/22 07:21:27;;;;;;;14.10;10.75;;;15.00;99.90;;;;;;5053572;28;20045;-71
2023/09/22 07:23:56;;;;;;;12.90;11.27;;;15.10;99.90;;;;;;5055629;28;20190;-70
2023/09/22 07:26:23;;;;;;;12.65;11.18;;;15.10;99.90;;;;;;5056765;28;20127;-70
2023/09/22 07:28:49;;;;;;;13.95;10.98;;;15.10;99.90;;;;;;5051367;28;20045;-71
2023/09/22 07:31:18;;;;;;;15.27;10.98;;;15.10;99.90;;;;;;5048852;28;20064;-71
2023/09/22 07:33:44;;;;;;;15.60;11.05;;;15.10;99.90;;;;;;5049236;28;20132;-70
2023/09/22 07:36:10;;;;;;;13.85;10.80;;;15.10;99.90;;;;;;5047190;28;20191;-71
2023/09/22 07:38:36;;;;;;;13.03;10.77;;;15.20;99.90;;;;;;5057315;28;20044;-71
2023/09/22 07:41:02;;;;;;;13.38;10.15;;;15.20;99.90;;;;;;5051937;28;20307;-70
2023/09/22 07:43:29;;;;;;;13.13;9.50;;;15.20;99.90;;;;;;5061039;28;20041;-71
2023/09/22 07:45:56;;;;;;;13.90;9.95;;;15.20;99.90;;;;;;5054260;28;20041;-72
2023/09/22 07:48:22;;;;;;;11.77;9.75;;;15.30;99.90;;;;;;5049486;28;20056;-75
2023/09/22 07:50:48;;;;;;;13.00;8.93;;;15.20;99.90;;;;;;5048991;28;20045;-72
2023/09/22 07:53:13;;;;;;;12.90;9.80;;;15.30;99.90;;;;;;5049938;28;20457;-71
2023/09/22 07:55:41;;;;;;;13.65;8.93;;;15.30;99.90;;;;;;5048484;28;20045;-71
2023/09/22 07:58:06;;;;;;;;;;;15.30;99.90;;;;;;5048942;28;20041;-72
2023/09/22 08:00:33;;;;;;;12.68;8.55;;;15.30;99.90;;;;;;5046102;28;20011;-73
2023/09/22 08:02:59;;;;;;;8.80;6.88;;;15.30;99.90;;;;;;5062874;28;20039;-72
2023/09/22 08:05:25;;;;;;;15.55;7.80;;;15.40;99.90;;;;;;5059058;28;20055;-70
2023/09/22 08:07:52;;;;;;;10.27;7.35;;;15.40;99.90;;;;;;5063110;28;20053;-71
2023/09/22 08:10:18;;;;;;;10.63;7.60;;;15.40;99.90;;;;;;5049366;28;20049;-71
2023/09/22 08:12:44;;;;;;;10.68;8.05;;;15.40;99.90;;;;;;5057913;28;20044;-73
2023/09/22 08:15:10;;;;;;;10.73;7.55;;;15.40;99.90;;;;;;5054347;28;20045;-78
2023/09/22 08:17:36;;;;;;;10.55;7.75;;;15.40;99.90;;;;;;5058121;28;20453;-72
2023/09/22 08:20:07;;;;;;;7.95;6.90;;;15.40;99.90;;;;;;5050423;28;20045;-73
2023/09/22 08:22:32;;;;;;;11.38;7.32;;;15.40;99.90;;;;;;5056893;28;20048;-73
2023/09/22 08:24:59;;;;;;;7.85;6.40;;;15.50;99.90;;;;;;5033507;28;20039;-73
2023/09/22 08:27:24;;;;;;;8.07;5.60;;;15.50;99.90;;;;;;5056251;28;20132;-73
2023/09/22 08:29:50;;;;;;;9.00;5.78;;;15.60;99.90;;;;;;5060161;28;20116;-73
2023/09/22 08:32:17;;;;;;;8.05;4.47;;;15.60;99.90;;;;;;5054016;28;20041;-72
2023/09/22 08:34:42;;;;;;;8.50;4.57;;;15.60;99.90;;;;;;5055923;28;20507;-72
2023/09/22 08:37:08;;;;;;;7.13;4.32;;;15.70;99.90;;;;;;5057397;28;20172;-72
2023/09/22 08:39:34;;;;;;;7.47;4.43;;;15.70;99.90;;;;;;5057053;28;20115;-72
2023/09/22 08:42:01;;;;;;;7.53;4.00;;;15.70;99.90;;;;;;5047633;28;20052;-74
2023/09/22 08:44:27;;;;;;;9.95;4.05;;;15.70;99.90;;;;;;5058294;28;20041;-72
2023/09/22 08:46:53;;;;;;;5.40;3.50;;;15.80;99.90;;;;;;5068429;28;20045;-73
2023/09/22 08:49:22;;;;;;;7.70;3.75;;;15.90;99.90;;;;;;5058753;28;20040;-72
2023/09/22 08:51:48;;;;;;;4.85;2.63;;;16.00;99.90;;;;;;5047715;28;20080;-72
2023/09/22 08:54:14;;;;;;;5.38;2.80;;;16.10;99.90;;;;;;5052803;28;20499;-73
2023/09/22 08:56:40;;;;;;;4.95;2.17;;;16.20;99.90;;;;;;5059923;28;20075;-73
2023/09/22 08:59:09;;;;;;;3.60;2.10;;;16.30;99.90;;;;;;5064539;28;20056;-73
2023/09/22 09:01:35;;;;;;;6.22;2.60;;;16.40;99.90;;;;;;5049191;28;20102;-73
2023/09/22 09:04:33;;;;;;;7.05;2.55;;;16.50;99.90;;;;;;5064492;28;20056;-73
2023/09/22 09:06:59;;;;;;;4.72;2.10;;;16.50;99.90;;;;;;5055781;28;20045;-72
2023/09/22 09:09:25;;;;;;;3.78;1.90;;;16.50;99.90;;;;;;5050243;28;20037;-71
2023/09/22 09:12:00;;;;;;;2.88;1.80;;;16.60;99.90;;;;;;5054823;28;20059;-73
2023/09/22 09:14:28;;;;;;;4.20;1.77;;;16.60;99.90;;;;;;5047079;28;20049;-79
2023/09/22 09:16:57;;;;;;;;;;;16.60;99.90;;;;;;5056469;28;20102;-72
2023/09/22 09:19:23;;;;;;;3.67;1.85;;;16.60;99.90;;;;;;5055458;28;19927;-72
2023/09/22 09:22:12;;;;;;;3.03;1.63;;;16.50;99.90;;;;;;5051344;28;20045;-72
2023/09/22 09:24:38;;;;;;;3.17;1.90;;;16.60;99.90;;;;;;5053694;28;20503;-71
2023/09/22 09:27:17;;;;;;;3.75;2.13;;;16.60;99.90;;;;;;5048268;28;20060;-72
2023/09/22 09:29:48;;;;;;;4.95;1.75;;;16.60;99.90;;;;;;5056812;28;20041;-73
2023/09/22 09:32:23;;;;;;;7.10;2.10;;;16.60;99.90;;;;;;5053947;28;20076;-72
2023/09/22 09:34:49;;;;;;;2.95;1.95;;;16.60;99.90;;;;;;5052772;28;20041;-71
2023/09/22 09:37:14;;;;;;;4.40;2.10;;;16.60;99.90;;;;;;5058692;28;20045;-72
2023/09/22 09:39:45;;;;;;;3.88;1.90;;;16.60;99.90;;;;;;5067655;28;20081;-73
2023/09/22 09:42:17;;;;;;;3.60;1.95;;;16.60;99.90;;;;;;5061532;28;20049;-74
2023/09/22 09:44:50;;;;;;;4.35;2.00;;;16.80;99.90;;;;;;5061586;28;20052;-73
2023/09/22 09:47:32;;;;;;;4.78;1.80;;;16.90;99.90;;;;;;5049672;28;20049;-73
2023/09/22 09:49:58;;;;;;;4.40;1.80;;;17.00;99.90;;;;;;5058029;28;20095;-73
2023/09/22 09:52:42;;;;;;;5.40;1.77;;;17.00;99.90;;;;;;5062124;28;20082;-74
2023/09/22 09:55:12;;;;;;;6.22;1.85;;;17.10;99.90;;;;;;5068955;28;20511;-73
2023/09/22 09:57:45;;;;;;;3.17;1.65;;;17.20;99.90;;;;;;5053999;28;20047;-74
2023/09/22 10:00:21;;;;;;;5.93;2.00;;;17.20;99.90;;;;;;5053712;28;20388;-74
2023/09/22 10:02:49;;;;;;;3.60;1.40;;;17.30;99.90;;;;;;5069777;28;20144;-74
2023/09/22 10:05:15;;;;;;;4.55;1.88;;;17.30;99.90;;;;;;5059113;28;20052;-75
2023/09/22 10:07:43;;;;;;;5.70;2.33;;;17.40;99.90;;;;;;5062898;28;20621;-74
2023/09/22 10:10:11;;;;;;;6.65;1.95;;;17.50;99.90;;;;;;5050579;28;20048;-75
2023/09/22 10:12:37;;;;;;;3.15;1.50;;;17.60;99.90;;;;;;5053906;28;20094;-75
2023/09/22 10:15:04;;;;;;;3.53;1.50;;;17.70;99.90;;;;;;5052137;28;20041;-75
2023/09/22 10:17:31;;;;;;;4.30;1.40;;;17.80;99.90;;;;;;5041336;28;20049;-74
2023/09/22 10:20:02;;;;;;;2.58;1.48;;;17.80;99.90;;;;;;5066750;28;20046;-76
2023/09/22 10:22:29;;;;;;;4.45;1.60;;;17.80;99.90;;;;;;5059311;28;20041;-73
2023/09/22 10:25:20;;;;;;;4.60;1.63;;;17.70;99.90;;;;;;5058848;28;20040;-74
2023/09/22 10:27:54;;;;;;;3.40;1.40;;;17.70;99.90;;;;;;5065423;28;20124;-71
2023/09/22 10:30:21;;;;;;;2.55;1.70;;;17.60;99.90;;;;;;5053615;28;20044;-73
2023/09/22 10:32:47;;;;;;;4.70;1.85;;;17.60;99.90;;;;;;5065074;28;20061;-73
2023/09/22 10:35:15;;;;;;;3.85;1.52;;;17.50;99.90;;;;;;5051971;28;20048;-73
2023/09/22 10:37:57;;;;;;;5.28;1.70;;;17.50;99.90;;;;;;5062013;28;20045;-71
2023/09/22 10:40:23;;;;;;;4.32;1.25;;;17.60;99.90;;;;;;5061062;28;20479;-72
2023/09/22 10:42:50;;;;;;;2.10;1.10;;;17.70;99.90;;;;;;5051968;28;20055;-75
2023/09/22 10:45:17;;;;;;;;;;;17.80;99.90;;;;;;5066628;28;20036;-75
2023/09/22 10:47:47;;;;;;;;;;;17.90;99.90;;;;;;5051945;28;19927;-74
2023/09/22 10:50:24;;;;;;;2.10;1.10;;;18.00;99.90;;;;;;5046579;28;19925;-75
2023/09/22 10:52:53;;;;;;;1.80;0.90;;;18.20;99.90;;;;;;5057889;28;20059;-75
2023/09/22 10:55:39;;;;;;;4.20;1.20;;;18.30;99.90;;;;;;5056044;28;20121;-75
2023/09/22 10:58:21;;;;;;;1.80;1.00;;;18.50;99.90;;;;;;5052988;28;20516;-75
2023/09/22 11:00:58;;;;;;;2.55;1.00;;;18.60;99.90;;;;;;5050782;28;20052;-75
2023/09/22 11:03:24;;;;;;;2.03;1.20;;;18.70;99.90;;;;;;5058151;28;20124;-75
2023/09/22 11:06:06;;;;;;;2.03;0.98;;;18.60;99.90;;;;;;5061701;28;20207;-74
2023/09/22 11:08:32;;;;;;;2.38;1.20;;;18.50;99.90;;;;;;5065831;28;20049;-75
2023/09/22 11:10:59;;;;;;;2.40;1.10;;;18.40;99.90;;;;;;5057991;28;20041;-75
2023/09/22 11:13:24;;;;;;;1.90;0.90;;;18.30;99.90;;;;;;5055667;28;20044;-73
2023/09/22 11:15:56;;;;;;;1.88;1.00;;;18.10;99.90;;;;;;5050139;28;20057;-78
2023/09/22 11:18:33;;;;;;;3.72;1.45;;;18.00;99.90;;;;;;5065667;28;20044;-73
2023/09/22 11:21:08;;;;;;;2.20;1.05;;;17.90;99.90;;;;;;5059461;28;20052;-74
2023/09/22 11:23:38;;;;;;;1.60;0.88;;;17.80;99.90;;;;;;5053997;28;20483;-74
2023/09/22 11:26:10;;;;;;;2.13;1.00;;;17.80;99.90;;;;;;5075239;28;20550;-74
2023/09/22 11:28:45;;;;;;;3.33;0.98;;;17.80;99.90;;;;;;5051151;28;20080;-74
2023/09/22 11:31:20;;;;;;;1.63;0.98;;;17.80;99.90;;;;;;5048816;28;20037;-74
2023/09/22 11:34:03;;;;;;;2.47;1.30;;;17.80;99.90;;;;;;5049386;28;20129;-72
2023/09/22 11:36:54;;;;;;;2.25;1.10;;;17.80;99.90;;;;;;5051580;28;20052;-73
2023/09/22 11:39:25;;;;;;;2.92;1.15;;;17.80;99.90;;;;;;5063610;28;20052;-74
2023/09/22 11:41:51;;;;;;;2.13;1.20;;;17.80;99.90;;;;;;5064816;28;20048;-74
2023/09/22 11:44:16;;;;;;;2.58;0.90;;;17.80;99.90;;;;;;5051126;28;20098;-75
2023/09/22 11:46:46;;;;;;;1.67;0.70;;;17.80;99.90;;;;;;5054754;28;20045;-74
2023/09/22 11:49:12;;;;;;;2.20;0.90;;;17.80;99.90;;;;;;5053938;28;20480;-73
2023/09/22 11:51:41;;;;;;;2.28;0.90;;;17.80;99.90;;;;;;5064840;28;20059;-73
2023/09/22 11:54:07;;;;;;;1.33;0.80;;;17.80;99.90;;;;;;5071645;28;20555;-73
2023/09/22 11:56:33;;;;;;;4.37;1.10;;;17.90;99.90;;;;;;5058556;28;20037;-76
2023/09/22 11:59:09;;;;;;;2.00;0.90;;;18.00;99.90;;;;;;5048680;28;20151;-74
2023/09/22 12:01:35;;;;;;;2.80;1.00;;;18.20;99.90;;;;;;5047613;28;20052;-74
2023/09/22 12:04:02;;;;;;;3.55;1.00;;;18.30;99.90;;;;;;5064120;28;20053;-74
2023/09/22 12:06:28;;;;;;;1.98;0.88;;;18.40;99.90;;;;;;5048063;28;20585;-74
2023/09/22 12:08:54;;;;;;;1.40;0.90;;;18.40;99.90;;;;;;5066331;28;20049;-74
2023/09/22 12:11:22;;;;;;;3.70;1.00;;;18.40;99.90;;;;;;5050014;28;20059;-74
2023/09/22 12:13:47;;;;;;;3.33;0.90;;;18.30;99.90;;;;;;5047824;28;20041;-74
2023/09/22 12:16:13;;;;;;;2.55;1.02;;;18.30;99.90;;;;;;5059625;28;20036;-74
2023/09/22 12:18:39;;;;;;;1.48;0.90;;;18.20;99.90;;;;;;5049124;28;20483;-74
2023/09/22 12:21:05;;;;;;;2.30;0.90;;;18.20;99.90;;;;;;5031378;28;20052;-74
2023/09/22 12:23:33;;;;;;;1.58;0.95;;;18.20;99.90;;;;;;5047937;28;20067;-74
2023/09/22 12:25:59;;;;;;;1.63;0.82;;;18.30;99.90;;;;;;5047120;28;20040;-74
2023/09/22 12:28:25;;;;;;;3.47;1.10;;;18.20;99.90;;;;;;5047460;28;20045;-74
2023/09/22 12:30:52;;;;;;;3.60;0.93;;;18.20;99.90;;;;;;5061492;28;20397;-74
2023/09/22 12:33:17;;;;;;;1.90;1.10;;;18.30;99.90;;;;;;5062787;28;20048;-74
2023/09/22 12:35:43;;;;;;;3.55;1.20;;;18.20;99.90;;;;;;5049898;28;20496;-74
2023/09/22 12:38:09;;;;;;;3.80;0.93;;;18.30;99.90;;;;;;5047302;28;20420;-74
2023/09/22 12:40:36;;;;;;;3.15;0.90;;;18.20;99.90;;;;;;5057306;28;20045;-74